createdAt,value
2023-05-10T00:02:01.744Z,99645.03
2023-05-10T00:04:32.265Z,99649.50
2023-05-10T00:07:00.542Z,99644.16
2023-05-10T00:09:28.814Z,99644.16
2023-05-10T00:11:59.548Z,99641.63
2023-05-10T00:14:27.674Z,99647.09
2023-05-10T00:16:56.174Z,99645.25
2023-05-10T00:21:19.582Z,99648.25
2023-05-10T00:23:47.963Z,99639.28
2023-05-10T00:26:17.577Z,99637.00
2023-05-10T00:28:51.411Z,99632.06
2023-05-10T00:31:20.051Z,99646.69
2023-05-10T00:33:48.214Z,99647.84
2023-05-10T00:36:16.602Z,99646.13
2023-05-10T00:38:46.767Z,99645.34
2023-05-10T00:41:14.988Z,99633.25
2023-05-10T00:43:43.742Z,99644.63
2023-05-10T00:46:16.397Z,99637.41
2023-05-10T00:48:45.751Z,99643.69
2023-05-10T00:51:16.360Z,99634.78
2023-05-10T00:53:48.204Z,99644.63
2023-05-10T00:56:17.178Z,99642.03
2023-05-10T00:58:46.216Z,99654.53
2023-05-10T01:01:15.575Z,99642.09
2023-05-10T01:03:45.657Z,99646.59
2023-05-10T01:06:17.385Z,99645.72
2023-05-10T01:08:47.074Z,99639.44
2023-05-10T01:11:16.221Z,99641.47
2023-05-10T01:13:48.602Z,99643.06
2023-05-10T01:16:16.880Z,99652.09
2023-05-10T01:18:48.020Z,99642.59
2023-05-10T01:21:23.662Z,99649.50
2023-05-10T01:24:34.570Z,99646.97
2023-05-10T01:27:27.369Z,99654.06
2023-05-10T01:30:45.418Z,99651.28
2023-05-10T01:33:20.635Z,99660.28
2023-05-10T01:35:56.615Z,99653.19
2023-05-10T01:38:32.410Z,99662.31
2023-05-10T01:41:10.815Z,99669.31
2023-05-10T01:43:46.308Z,99661.44
2023-05-10T01:46:19.903Z,99663.50
2023-05-10T01:48:52.064Z,99674.81
2023-05-10T01:51:26.307Z,99668.59
2023-05-10T01:54:02.610Z,99671.41
2023-05-10T01:56:35.402Z,99647.31
2023-05-10T01:59:10.999Z,99678.88
2023-05-10T02:01:40.448Z,99677.22
2023-05-10T02:04:11.731Z,99684.28
2023-05-10T02:06:43.564Z,99677.28
2023-05-10T02:09:16.447Z,99689.50
2023-05-10T02:11:45.177Z,99684.22
2023-05-10T02:14:16.373Z,99679.69
2023-05-10T02:16:45.259Z,99679.72
2023-05-10T02:19:16.267Z,99682.41
2023-05-10T02:21:48.205Z,99682.34
2023-05-10T02:24:18.050Z,99686.72
2023-05-10T02:26:52.095Z,99688.53
2023-05-10T02:29:21.465Z,99688.63
2023-05-10T02:31:50.476Z,99685.94
2023-05-10T02:34:21.851Z,99687.59
2023-05-10T02:36:54.602Z,99689.56
2023-05-10T02:39:29.353Z,99681.69
2023-05-10T02:42:01.253Z,99685.16
2023-05-10T02:44:32.284Z,99688.91
2023-05-10T02:49:48.138Z,99690.81
2023-05-10T02:52:21.588Z,99689.94
2023-05-10T02:54:56.966Z,99690.66
2023-05-10T02:57:35.740Z,99687.22
2023-05-10T03:00:04.795Z,99685.47
2023-05-10T03:02:33.556Z,99687.03
2023-05-10T03:05:04.242Z,99684.44
2023-05-10T03:07:32.468Z,99694.13
2023-05-10T03:10:08.258Z,99694.84
2023-05-10T03:12:55.131Z,99695.78
2023-05-10T03:15:31.154Z,99711.03
2023-05-10T03:18:05.782Z,99693.34
2023-05-10T03:20:38.456Z,99695.91
2023-05-10T03:23:13.480Z,99699.22
2023-05-10T03:25:44.804Z,99703.88
2023-05-10T03:28:14.417Z,99712.78
2023-05-10T03:30:44.981Z,99717.25
2023-05-10T03:33:15.181Z,99683.66
2023-05-10T03:35:48.343Z,99718.13
2023-05-10T03:38:17.687Z,99717.09
2023-05-10T03:40:48.626Z,99709.28
2023-05-10T03:43:16.851Z,99704.22
2023-05-10T03:45:45.174Z,99708.72
2023-05-10T03:48:14.694Z,99711.47
2023-05-10T03:50:43.880Z,99711.75
2023-05-10T03:53:13.428Z,99713.63
2023-05-10T03:55:41.754Z,99714.00
2023-05-10T03:58:13.082Z,99713.44
2023-05-10T04:00:46.320Z,99716.31
2023-05-10T04:03:16.417Z,99711.13
2023-05-10T04:05:44.612Z,99710.47
2023-05-10T04:08:15.899Z,99709.59
2023-05-10T04:10:44.041Z,99708.97
2023-05-10T04:13:14.624Z,99708.13
2023-05-10T04:15:42.855Z,99713.53
2023-05-10T04:18:11.209Z,99716.44
2023-05-10T04:20:39.344Z,99729.03
2023-05-10T04:23:07.651Z,99729.91
2023-05-10T04:25:37.746Z,99725.41
2023-05-10T04:28:06.165Z,99735.53
2023-05-10T04:30:36.611Z,99733.78
2023-05-10T04:33:05.198Z,99727.66
2023-05-10T04:35:33.338Z,99729.59
2023-05-10T04:38:01.644Z,99733.13
2023-05-10T04:40:32.043Z,99729.72
2023-05-10T04:43:03.663Z,99735.78
2023-05-10T04:45:31.841Z,99742.16
2023-05-10T04:48:00.251Z,99739.53
2023-05-10T04:50:28.459Z,99737.94
2023-05-10T04:52:56.743Z,99748.34
2023-05-10T04:55:25.011Z,99753.59
2023-05-10T04:57:53.639Z,99755.41
2023-05-10T05:00:23.624Z,99758.81
2023-05-10T05:02:52.842Z,99757.75
2023-05-10T05:05:21.339Z,99754.28
2023-05-10T05:07:49.578Z,99773.47
2023-05-10T05:10:20.229Z,99771.50
2023-05-10T05:12:48.745Z,99770.25
2023-05-10T05:15:17.884Z,99768.09
2023-05-10T05:17:47.486Z,99775.88
2023-05-10T05:22:28.121Z,99782.69
2023-05-10T05:24:56.426Z,99782.22
2023-05-10T05:27:25.416Z,99780.72
2023-05-10T05:29:55.063Z,99783.09
2023-05-10T05:32:23.398Z,99778.34
2023-05-10T05:34:52.001Z,99773.78
2023-05-10T05:37:26.231Z,99779.50
2023-05-10T05:39:55.497Z,99788.16
2023-05-10T05:42:26.261Z,99783.66
2023-05-10T05:44:54.542Z,99781.41
2023-05-10T05:47:22.662Z,99779.88
2023-05-10T05:49:51.143Z,99761.56
2023-05-10T05:52:19.318Z,99789.84
2023-05-10T05:54:48.910Z,99786.59
2023-05-10T05:57:17.080Z,99782.59
2023-05-10T05:59:45.512Z,99791.13
2023-05-10T06:02:14.227Z,99790.66
2023-05-10T06:04:44.686Z,99783.69
2023-05-10T06:07:13.265Z,99798.09
2023-05-10T06:09:44.024Z,99803.97
2023-05-10T06:12:13.859Z,99806.41
2023-05-10T06:14:44.745Z,99806.53
2023-05-10T06:17:12.769Z,99809.94
2023-05-10T06:19:40.849Z,99814.59
2023-05-10T06:22:09.368Z,99816.44
2023-05-10T06:24:37.449Z,99818.31
2023-05-10T06:27:05.547Z,99823.44
2023-05-10T06:29:35.531Z,99818.84
2023-05-10T06:32:04.238Z,99819.22
2023-05-10T06:34:32.586Z,99820.31
2023-05-10T06:37:01.015Z,99817.56
2023-05-10T06:39:29.787Z,99825.25
2023-05-10T06:41:57.832Z,99825.25
2023-05-10T06:44:31.600Z,99826.88
2023-05-10T06:47:01.249Z,99825.94
2023-05-10T06:49:31.876Z,99823.38
2023-05-10T06:52:00.695Z,99821.88
2023-05-10T06:54:28.973Z,99824.91
2023-05-10T06:57:01.266Z,99826.03
2023-05-10T06:59:31.065Z,99821.38
2023-05-10T07:01:59.804Z,99823.88
2023-05-10T07:04:29.402Z,99826.31
2023-05-10T07:06:58.311Z,99827.50
2023-05-10T07:09:29.180Z,99829.19
2023-05-10T07:11:58.359Z,99835.75
2023-05-10T07:14:26.526Z,99832.56
2023-05-10T07:16:54.670Z,99841.69
2023-05-10T07:19:22.945Z,99848.34
2023-05-10T07:21:54.729Z,99835.28
2023-05-10T07:24:23.621Z,99854.13
2023-05-10T07:26:51.800Z,99855.63
2023-05-10T07:29:20.405Z,99861.00
2023-05-10T07:31:51.618Z,99866.97
2023-05-10T07:34:19.906Z,99856.31
2023-05-10T07:36:48.512Z,99857.19
2023-05-10T07:39:26.665Z,99864.38
2023-05-10T07:41:55.719Z,99855.19
2023-05-10T07:44:23.879Z,99862.97
2023-05-10T07:46:52.413Z,99860.88
2023-05-10T07:49:21.049Z,99857.09
2023-05-10T07:51:51.545Z,99861.81
2023-05-10T07:54:21.756Z,99861.44
2023-05-10T07:56:51.063Z,99864.06
2023-05-10T07:59:19.820Z,99867.13
2023-05-10T08:01:48.095Z,99864.84
2023-05-10T08:04:16.417Z,99870.44
2023-05-10T08:06:47.836Z,99866.91
2023-05-10T08:09:18.874Z,99870.69
2023-05-10T08:11:48.788Z,99869.59
2023-05-10T08:14:16.863Z,99866.00
2023-05-10T08:16:45.054Z,99853.06
2023-05-10T08:19:13.169Z,99867.91
2023-05-10T08:21:43.522Z,99869.22
2023-05-10T08:24:11.817Z,99875.13
2023-05-10T08:26:42.421Z,99865.75
2023-05-10T08:29:12.024Z,99873.50
2023-05-10T08:31:40.189Z,99875.16
2023-05-10T08:34:08.463Z,99875.22
2023-05-10T08:36:39.492Z,99877.16
2023-05-10T08:39:19.512Z,99880.50
2023-05-10T08:42:00.249Z,99888.47
2023-05-10T08:44:31.365Z,99886.28
2023-05-10T08:47:01.744Z,99885.78
2023-05-10T08:49:33.681Z,99896.16
2023-05-10T08:52:05.095Z,99902.97
2023-05-10T08:54:36.646Z,99903.34
2023-05-10T08:57:05.645Z,99898.13
2023-05-10T08:59:35.174Z,99904.78
2023-05-10T09:02:04.826Z,99905.88
2023-05-10T09:04:33.395Z,99919.69
2023-05-10T09:07:02.218Z,99913.09
2023-05-10T09:09:31.046Z,99910.06
2023-05-10T09:11:59.356Z,99926.84
2023-05-10T09:14:28.037Z,99925.88
2023-05-10T09:16:58.380Z,99917.47
2023-05-10T09:19:26.617Z,99920.03
2023-05-10T09:21:55.103Z,99916.19
2023-05-10T09:24:27.836Z,99921.56
2023-05-10T09:26:56.036Z,99927.47
2023-05-10T09:29:26.488Z,99923.84
2023-05-10T09:31:56.388Z,99927.13
2023-05-10T09:34:33.458Z,99920.88
2023-05-10T09:37:05.617Z,99925.75
2023-05-10T09:39:34.713Z,99930.13
2023-05-10T09:42:05.979Z,99937.00
2023-05-10T09:44:34.652Z,99942.50
2023-05-10T09:47:03.133Z,99940.53
2023-05-10T09:49:34.375Z,99928.41
2023-05-10T09:52:06.260Z,99938.38
2023-05-10T09:54:36.012Z,99933.38
2023-05-10T09:57:06.377Z,99946.47
2023-05-10T09:59:36.406Z,99946.44
2023-05-10T10:02:07.227Z,99943.56
2023-05-10T10:04:43.239Z,99952.75
2023-05-10T10:07:11.611Z,99951.56
2023-05-10T10:09:41.022Z,99944.06
2023-05-10T10:12:11.513Z,99950.19
2023-05-10T10:14:39.812Z,99955.47
2023-05-10T10:17:09.152Z,99944.88
2023-05-10T10:19:38.409Z,99951.03
2023-05-10T10:23:26.312Z,99944.63
2023-05-10T10:25:56.456Z,99944.22
2023-05-10T10:28:34.493Z,99926.56
2023-05-10T10:31:18.722Z,99937.75
2023-05-10T10:34:01.549Z,99936.97
2023-05-10T10:36:29.929Z,99944.44
2023-05-10T10:39:05.080Z,99944.88
2023-05-10T10:41:35.630Z,99947.31
2023-05-10T10:44:37.699Z,99933.03
2023-05-10T10:47:25.783Z,99944.16
2023-05-10T10:50:04.458Z,99941.97
2023-05-10T10:52:34.966Z,99939.84
2023-05-10T10:55:07.579Z,99942.13
2023-05-10T10:57:45.456Z,99946.13
2023-05-10T11:00:31.771Z,99953.50
2023-05-10T11:03:01.870Z,99940.97
2023-05-10T11:05:39.130Z,99958.28
2023-05-10T11:08:22.959Z,99955.13
2023-05-10T11:10:55.157Z,99951.78
2023-05-10T11:13:31.514Z,99958.84
2023-05-10T11:16:01.078Z,99963.00
2023-05-10T11:18:30.746Z,99964.94
2023-05-10T11:21:01.299Z,99956.19
2023-05-10T11:23:33.636Z,99954.28
2023-05-10T11:26:03.413Z,99953.84
2023-05-10T11:28:31.549Z,99952.41
2023-05-10T11:31:00.018Z,99958.16
2023-05-10T11:33:28.295Z,99952.56
2023-05-10T11:35:56.490Z,99959.50
2023-05-10T11:38:24.660Z,99954.81
2023-05-10T11:40:55.494Z,99962.25
2023-05-10T11:43:31.642Z,99950.25
2023-05-10T11:46:00.015Z,99958.84
2023-05-10T11:48:28.872Z,99952.91
2023-05-10T11:50:58.119Z,99961.16
2023-05-10T11:53:28.355Z,99962.63
2023-05-10T11:55:56.717Z,99965.28
2023-05-10T11:58:25.083Z,99969.72
2023-05-10T12:00:54.772Z,99972.91
2023-05-10T12:03:23.223Z,99982.78
2023-05-10T12:05:53.987Z,99966.56
2023-05-10T12:08:24.201Z,99974.03
2023-05-10T12:10:52.786Z,99970.78
2023-05-10T12:13:22.057Z,99976.56
2023-05-10T12:15:50.579Z,99965.78
2023-05-10T12:18:26.580Z,99967.44
2023-05-10T12:21:05.823Z,99977.03
2023-05-10T12:23:34.031Z,99978.25
2023-05-10T12:26:05.365Z,99987.03
2023-05-10T12:28:34.767Z,99976.78
2023-05-10T12:31:03.715Z,99969.06
2023-05-10T12:33:42.718Z,99994.88
2023-05-10T12:36:11.981Z,99982.97
2023-05-10T12:38:44.272Z,99989.34
2023-05-10T12:41:14.123Z,99990.44
2023-05-10T12:43:42.788Z,99990.94
2023-05-10T12:46:12.434Z,99992.94
2023-05-10T12:48:43.766Z,99993.91
2023-05-10T12:51:14.121Z,99996.53
2023-05-10T12:53:45.088Z,99993.63
2023-05-10T12:56:14.644Z,99998.69
2023-05-10T12:58:43.038Z,99997.06
2023-05-10T13:01:11.133Z,100002.38
2023-05-10T13:03:39.586Z,99999.31
2023-05-10T13:06:09.441Z,99997.69
2023-05-10T13:08:37.671Z,99994.88
2023-05-10T13:11:06.597Z,99998.34
2023-05-10T13:13:35.424Z,99999.91
2023-05-10T13:16:03.520Z,99995.44
2023-05-10T13:18:31.945Z,99993.53
2023-05-10T13:21:00.322Z,99996.72
2023-05-10T13:23:29.983Z,99985.56
2023-05-10T13:25:58.245Z,99989.97
2023-05-10T13:28:27.617Z,99990.81
2023-05-10T13:30:55.921Z,99984.53
2023-05-10T13:33:26.191Z,99994.47
2023-05-10T13:35:55.780Z,99989.44
2023-05-10T13:38:24.128Z,99988.63
2023-05-10T13:40:54.064Z,99987.91
2023-05-10T13:43:22.450Z,99987.97
2023-05-10T13:45:50.552Z,99986.50
2023-05-10T13:48:21.245Z,99992.31
2023-05-10T13:50:49.591Z,99993.19
2023-05-10T13:53:17.919Z,99979.88
2023-05-10T13:55:46.711Z,99988.47
2023-05-10T13:58:16.526Z,99984.81
2023-05-10T14:00:45.010Z,99985.06
2023-05-10T14:03:13.331Z,99982.34
2023-05-10T14:05:46.023Z,99983.22
2023-05-10T14:08:15.684Z,99975.34
2023-05-10T14:10:44.134Z,99979.75
2023-05-10T14:13:12.287Z,99976.69
2023-05-10T14:15:42.092Z,99977.53
2023-05-10T14:18:10.575Z,99971.28
2023-05-10T14:20:38.838Z,99976.75
2023-05-10T14:23:07.014Z,99975.56
2023-05-10T14:25:36.062Z,99970.56
2023-05-10T14:28:07.163Z,99961.47
2023-05-10T14:30:36.275Z,99972.06
2023-05-10T14:33:05.984Z,99975.69
2023-05-10T14:35:36.950Z,99968.81
2023-05-10T14:38:05.430Z,99967.91
2023-05-10T14:40:35.927Z,99970.09
2023-05-10T14:43:04.241Z,99977.25
2023-05-10T14:45:32.654Z,99971.97
2023-05-10T14:48:01.021Z,99968.44
2023-05-10T14:53:04.199Z,99964.13
2023-05-10T14:55:33.803Z,99969.78
2023-05-10T14:58:01.968Z,99967.94
2023-05-10T15:00:33.741Z,99963.41
2023-05-10T15:03:02.456Z,99962.47
2023-05-10T15:05:32.487Z,99959.63
2023-05-10T15:08:01.179Z,99961.38
2023-05-10T15:10:29.358Z,99958.91
2023-05-10T15:13:01.430Z,99965.63
2023-05-10T15:15:29.698Z,99960.44
2023-05-10T15:17:57.860Z,99962.00
2023-05-10T15:20:26.272Z,99964.25
2023-05-10T15:24:28.490Z,99965.78
2023-05-10T15:26:56.776Z,99960.84
2023-05-10T15:29:27.602Z,99962.44
2023-05-10T15:31:55.731Z,99965.16
2023-05-10T15:34:23.994Z,99960.34
2023-05-10T15:36:56.780Z,99962.94
2023-05-10T15:39:25.065Z,99963.13
2023-05-10T15:41:54.643Z,99956.84
2023-05-10T15:44:22.979Z,99961.16
2023-05-10T15:46:52.350Z,99960.28
2023-05-10T15:49:20.592Z,99965.44
2023-05-10T15:51:50.078Z,99962.34
2023-05-10T15:54:18.386Z,99962.28
2023-05-10T15:56:46.644Z,99964.84
2023-05-10T15:59:16.148Z,99951.69
2023-05-10T16:01:44.710Z,99965.00
2023-05-10T16:04:15.154Z,99973.72
2023-05-10T16:06:43.338Z,99967.75
2023-05-10T16:09:14.050Z,99977.03
2023-05-10T16:11:44.704Z,99979.47
2023-05-10T16:14:13.036Z,99974.59
2023-05-10T16:16:43.386Z,99975.81
2023-05-10T16:19:11.632Z,99978.88
2023-05-10T16:21:39.843Z,99979.31
2023-05-10T16:24:08.410Z,99983.91
2023-05-10T16:26:40.747Z,99985.84
2023-05-10T16:29:09.234Z,99968.84
2023-05-10T16:31:37.460Z,99990.00
2023-05-10T16:34:14.630Z,99981.53
2023-05-10T16:36:43.689Z,99971.22
2023-05-10T16:39:11.830Z,99967.75
2023-05-10T16:41:40.749Z,99980.00
2023-05-10T16:44:11.152Z,99978.03
2023-05-10T16:46:39.413Z,99976.22
2023-05-10T16:49:09.439Z,99977.94
2023-05-10T16:51:38.060Z,99976.44
2023-05-10T16:54:06.378Z,99984.25
2023-05-10T16:56:34.976Z,99983.00
2023-05-10T16:59:03.724Z,99982.66
2023-05-10T17:01:31.827Z,99987.00
2023-05-10T17:04:00.633Z,99990.72
2023-05-10T17:06:30.175Z,99995.25
2023-05-10T17:08:58.367Z,99988.59
2023-05-10T17:11:29.978Z,99986.84
2023-05-10T17:13:58.117Z,99988.91
2023-05-10T17:16:26.974Z,99994.94
2023-05-10T17:18:57.990Z,99990.66
2023-05-10T17:21:26.546Z,99996.06
2023-05-10T17:23:55.952Z,99993.56
2023-05-10T17:26:27.712Z,99996.16
2023-05-10T17:28:56.125Z,100002.63
2023-05-10T17:31:27.082Z,100006.47
2023-05-10T17:33:55.925Z,100007.47
2023-05-10T17:36:24.523Z,100005.41
2023-05-10T17:38:52.677Z,100001.69
2023-05-10T17:41:23.445Z,100005.41
2023-05-10T17:43:51.935Z,100002.56
2023-05-10T17:46:23.810Z,99995.03
2023-05-10T17:48:52.240Z,100001.50
2023-05-10T17:51:20.814Z,100005.28
2023-05-10T17:53:48.966Z,100003.66
2023-05-10T17:56:17.345Z,100007.84
2023-05-10T17:58:47.798Z,100004.34
2023-05-10T18:01:17.490Z,100009.88
2023-05-10T18:03:46.431Z,100007.59
2023-05-10T18:06:15.038Z,100006.16
2023-05-10T18:08:43.166Z,100008.13
2023-05-10T18:11:14.218Z,100009.38
2023-05-10T18:13:42.448Z,100013.38
2023-05-10T18:16:13.559Z,100015.38
2023-05-10T18:18:42.359Z,100010.19
2023-05-10T18:21:13.494Z,100009.44
2023-05-10T18:23:41.787Z,100015.91
2023-05-10T18:26:13.117Z,100006.09
2023-05-10T18:28:43.975Z,100013.22
2023-05-10T18:31:13.845Z,100013.41
2023-05-10T18:33:42.043Z,100014.56
2023-05-10T18:36:12.756Z,100015.75
2023-05-10T18:38:41.418Z,100018.16
2023-05-10T18:41:12.362Z,100016.94
2023-05-10T18:43:42.513Z,100021.25
2023-05-10T18:46:10.876Z,100023.13
2023-05-10T18:48:40.793Z,100020.63
2023-05-10T18:51:09.088Z,100025.63
2023-05-10T18:53:38.676Z,100033.56
2023-05-10T18:56:07.140Z,100030.38
2023-05-10T18:58:35.886Z,100034.84
2023-05-10T19:01:04.061Z,100040.78
2023-05-10T19:03:32.273Z,100039.78
2023-05-10T19:06:01.904Z,100038.81
2023-05-10T19:08:32.442Z,100045.06
2023-05-10T19:11:02.913Z,100050.34
2023-05-10T19:13:31.160Z,100052.91
2023-05-10T19:16:06.178Z,100046.59
2023-05-10T19:18:34.675Z,100056.47
2023-05-10T19:21:08.464Z,100058.84
2023-05-10T19:23:39.331Z,100063.19
2023-05-10T19:26:09.336Z,100067.31
2023-05-10T19:28:59.335Z,100066.91
2023-05-10T19:31:43.313Z,100065.59
2023-05-10T19:34:29.120Z,100073.22
2023-05-10T19:37:07.995Z,100051.63
2023-05-10T19:39:38.812Z,100072.84
2023-05-10T19:42:07.145Z,100075.53
2023-05-10T19:45:27.113Z,100074.75
2023-05-10T19:48:07.726Z,100080.25
2023-05-10T19:50:45.005Z,100088.59
2023-05-10T19:53:16.554Z,100087.81
2023-05-10T19:55:47.707Z,100087.16
2023-05-10T19:58:15.843Z,100087.31
2023-05-10T20:00:43.982Z,100088.19
2023-05-10T20:03:12.215Z,100099.03
2023-05-10T20:05:40.424Z,100094.66
2023-05-10T20:08:10.891Z,100092.28
2023-05-10T20:10:40.781Z,100092.50
2023-05-10T20:13:11.435Z,100082.88
2023-05-10T20:15:39.802Z,100096.16
2023-05-10T20:18:10.160Z,100090.13
2023-05-10T20:20:38.381Z,100093.81
2023-05-10T20:25:28.813Z,100094.31
2023-05-10T20:28:06.907Z,100100.63
2023-05-10T20:30:36.475Z,100103.59
2023-05-10T20:33:04.750Z,100105.56
2023-05-10T20:35:34.220Z,100103.28
2023-05-10T20:38:02.628Z,100101.63
2023-05-10T20:40:33.056Z,100106.53
2023-05-10T20:43:01.728Z,100105.16
2023-05-10T20:45:30.168Z,100104.50
2023-05-10T20:47:58.629Z,100103.75
2023-05-10T20:50:27.692Z,100100.50
2023-05-10T20:52:55.851Z,100101.84
2023-05-10T20:55:24.593Z,100097.66
2023-05-10T20:57:54.024Z,100104.19
2023-05-10T21:00:22.705Z,100107.03
2023-05-10T21:02:53.259Z,100105.63
2023-05-10T21:05:21.397Z,100106.63
2023-05-10T21:07:50.025Z,100108.56
2023-05-10T21:10:18.412Z,100097.22
2023-05-10T21:12:46.774Z,100102.75
2023-05-10T21:15:17.623Z,100097.78
2023-05-10T21:17:46.302Z,100098.13
2023-05-10T21:20:15.223Z,100097.59
2023-05-10T21:22:45.817Z,100095.53
2023-05-10T21:25:14.185Z,100100.41
2023-05-10T21:27:42.320Z,100103.13
2023-05-10T21:30:11.246Z,100090.78
2023-05-10T21:32:40.928Z,100094.66
2023-05-10T21:35:10.109Z,100102.34
2023-05-10T21:37:40.725Z,100096.53
2023-05-10T21:40:09.745Z,100100.44
2023-05-10T21:42:37.783Z,100100.56
2023-05-10T21:45:07.318Z,100099.13
2023-05-10T21:47:37.874Z,100099.25
2023-05-10T21:50:10.163Z,100099.41
2023-05-10T21:52:38.856Z,100094.41
2023-05-10T21:55:10.593Z,100097.44
2023-05-10T21:57:38.742Z,100098.47
2023-05-10T22:00:08.700Z,100102.31
2023-05-10T22:02:36.925Z,100106.44
2023-05-10T22:05:07.393Z,100102.13
2023-05-10T22:07:38.648Z,100098.16
2023-05-10T22:10:08.007Z,100100.06
2023-05-10T22:12:36.188Z,100099.41
2023-05-10T22:17:36.054Z,100103.28
2023-05-10T22:20:04.349Z,100102.78
2023-05-10T22:22:33.948Z,100104.66
2023-05-10T22:25:02.357Z,100108.16
2023-05-10T22:27:30.614Z,100102.13
2023-05-10T22:29:58.794Z,100113.38
2023-05-10T22:32:27.188Z,100104.38
2023-05-10T22:34:55.849Z,100106.19
2023-05-10T22:37:24.163Z,100101.59
2023-05-10T22:39:53.762Z,100103.50
2023-05-10T22:42:22.140Z,100107.81
2023-05-10T22:44:50.294Z,100107.00
2023-05-10T22:47:21.404Z,100112.56
2023-05-10T22:49:52.264Z,100105.56
2023-05-10T22:52:24.239Z,100108.16
2023-05-10T22:54:53.745Z,100118.88
2023-05-10T22:57:22.062Z,100111.09
2023-05-10T22:59:50.509Z,100114.63
2023-05-10T23:02:18.882Z,100118.41
2023-05-10T23:04:48.388Z,100118.41
2023-05-10T23:07:16.769Z,100120.28
2023-05-10T23:09:47.652Z,100125.81
2023-05-10T23:12:19.598Z,100121.38
2023-05-10T23:14:47.756Z,100117.84
2023-05-10T23:17:15.925Z,100123.19
2023-05-10T23:19:46.651Z,100116.88
2023-05-10T23:22:15.067Z,100125.63
2023-05-10T23:24:43.183Z,100118.66
2023-05-10T23:27:14.721Z,100127.69
2023-05-10T23:29:44.231Z,100125.25
2023-05-10T23:32:12.530Z,100127.19
2023-05-10T23:34:40.749Z,100135.31
2023-05-10T23:37:08.926Z,100137.16
2023-05-10T23:39:37.163Z,100135.34
2023-05-10T23:42:05.354Z,100135.41
2023-05-10T23:44:33.701Z,100133.66
2023-05-10T23:47:03.303Z,100139.94
2023-05-10T23:49:33.921Z,100131.97
2023-05-10T23:52:02.100Z,100141.00
2023-05-10T23:54:30.330Z,100132.16
2023-05-10T23:56:58.420Z,100131.34
2023-05-10T23:59:26.740Z,100135.81
